createdAt,value
2019-04-01T00:00:30.631Z,0
2019-04-01T00:01:32.115Z,0
2019-04-01T00:02:33.640Z,0
2019-04-01T00:03:35.170Z,0
2019-04-01T00:04:36.717Z,0
2019-04-01T00:05:38.287Z,0
2019-04-01T00:06:40.111Z,0
2019-04-01T00:07:41.777Z,0
2019-04-01T00:08:43.389Z,0
2019-04-01T00:09:45.069Z,0
2019-04-01T00:10:46.587Z,0
2019-04-01T00:11:48.327Z,0
2019-04-01T00:12:49.954Z,0
2019-04-01T00:13:51.495Z,0
2019-04-01T00:14:53.026Z,0
2019-04-01T00:15:54.678Z,0
2019-04-01T00:16:56.280Z,0
2019-04-01T00:17:58.008Z,0
2019-04-01T00:19:03.190Z,0
2019-04-01T00:20:01.316Z,0
2019-04-01T00:21:02.938Z,0
2019-04-01T00:22:04.607Z,0
2019-04-01T00:23:06.389Z,0
2019-04-01T00:24:07.806Z,0
2019-04-01T00:25:09.394Z,0
2019-04-01T00:26:11.210Z,0
2019-04-01T00:27:12.879Z,0
2019-04-01T00:28:14.509Z,0
2019-04-01T00:29:16.321Z,0
2019-04-01T00:30:17.954Z,0
2019-04-01T00:31:19.555Z,0
2019-04-01T00:32:21.207Z,0
2019-04-01T00:33:22.792Z,0
2019-04-01T00:34:24.375Z,0
2019-04-01T00:35:26.449Z,0
2019-04-01T00:36:28.084Z,0
2019-04-01T00:37:29.737Z,0
2019-04-01T00:38:31.588Z,0
2019-04-01T00:39:33.114Z,0
2019-04-01T00:40:35.166Z,0
2019-04-01T00:41:36.779Z,0
2019-04-01T00:42:38.506Z,0
2019-04-01T00:43:40.099Z,0
2019-04-01T00:44:41.794Z,0
2019-04-01T00:45:43.388Z,0
2019-04-01T00:46:45.247Z,0
2019-04-01T00:47:46.829Z,0
2019-04-01T00:48:48.645Z,0
2019-04-01T00:49:50.269Z,0
2019-04-01T00:50:52.096Z,0
2019-04-01T00:51:53.721Z,0
2019-04-01T00:52:55.419Z,0
2019-04-01T00:53:57.032Z,0
2019-04-01T00:54:58.759Z,0
2019-04-01T00:56:00.532Z,0
2019-04-01T00:57:02.126Z,0
2019-04-01T00:58:03.712Z,0
2019-04-01T00:59:05.530Z,0
2019-04-01T01:00:07.170Z,0
2019-04-01T01:01:08.751Z,0
2019-04-01T01:02:10.651Z,0
2019-04-01T01:03:12.195Z,0
2019-04-01T01:04:13.857Z,0
2019-04-01T01:05:15.508Z,0
2019-04-01T01:06:17.206Z,0
2019-04-01T01:07:19.006Z,0
2019-04-01T01:08:20.620Z,0
2019-04-01T01:09:22.297Z,0
2019-04-01T01:10:23.932Z,0
2019-04-01T01:11:25.585Z,0
2019-04-01T01:12:27.142Z,0
2019-04-01T01:13:28.917Z,0
2019-04-01T01:14:30.556Z,0
2019-04-01T01:15:32.115Z,0
2019-04-01T01:16:33.806Z,0
2019-04-01T01:17:35.311Z,0
2019-04-01T01:18:36.933Z,0
2019-04-01T01:19:38.504Z,0
2019-04-01T01:20:40.087Z,0
2019-04-01T01:21:41.861Z,0
2019-04-01T01:22:43.493Z,0
2019-04-01T01:23:45.117Z,0
2019-04-01T01:24:46.708Z,0
2019-04-01T01:25:48.421Z,0
2019-04-01T01:26:50.015Z,0
2019-04-01T01:27:51.738Z,0
2019-04-01T01:28:53.340Z,0
2019-04-01T01:29:55.058Z,0
2019-04-01T01:30:56.896Z,0
2019-04-01T01:31:58.528Z,0
2019-04-01T01:33:00.127Z,0
2019-04-01T01:34:01.831Z,0
2019-04-01T01:35:03.415Z,0
2019-04-01T01:36:05.001Z,0
2019-04-01T01:37:06.749Z,0
2019-04-01T01:38:08.330Z,0
2019-04-01T01:39:09.947Z,0
2019-04-01T01:40:11.714Z,0
2019-04-01T01:41:13.292Z,0
2019-04-01T01:42:14.941Z,0
2019-04-01T01:43:16.558Z,0
2019-04-01T01:44:18.338Z,0
2019-04-01T01:45:19.945Z,0
2019-04-01T01:46:21.852Z,0
2019-04-01T01:47:23.312Z,0
2019-04-01T01:48:25.036Z,0
2019-04-01T01:49:26.600Z,0
2019-04-01T01:50:28.302Z,0
2019-04-01T01:51:29.852Z,0
2019-04-01T01:52:31.605Z,0
2019-04-01T01:53:33.423Z,0
2019-04-01T01:54:35.197Z,0
2019-04-01T01:55:36.766Z,0
2019-04-01T01:56:38.398Z,0
2019-04-01T01:57:40.008Z,0
2019-04-01T01:58:41.688Z,0
2019-04-01T01:59:43.322Z,0
2019-04-01T02:00:45.045Z,0
2019-04-01T02:01:46.713Z,0
2019-04-01T02:02:48.503Z,0
2019-04-01T02:03:50.231Z,0
2019-04-01T02:04:51.798Z,0
2019-04-01T02:05:53.636Z,0
2019-04-01T02:06:55.224Z,0
2019-04-01T02:07:56.833Z,0
2019-04-01T02:08:58.607Z,0
2019-04-01T02:10:00.341Z,0
2019-04-01T02:11:01.871Z,0
2019-04-01T02:12:03.361Z,0
2019-04-01T02:13:05.056Z,0
2019-04-01T02:14:06.608Z,0
2019-04-01T02:15:08.253Z,0
2019-04-01T02:16:10.084Z,0
2019-04-01T02:17:11.655Z,0
2019-04-01T02:18:13.640Z,0
2019-04-01T02:19:15.421Z,0
2019-04-01T02:20:17.090Z,0
2019-04-01T02:21:18.726Z,0
2019-04-01T02:22:20.347Z,0
2019-04-01T02:23:21.919Z,0
2019-04-01T02:24:23.464Z,0
2019-04-01T02:25:25.273Z,0
2019-04-01T02:26:26.884Z,0
2019-04-01T02:27:28.580Z,0
2019-04-01T02:28:30.199Z,0
2019-04-01T02:29:31.904Z,0
2019-04-01T02:30:33.459Z,0
2019-04-01T02:31:35.177Z,0
2019-04-01T02:32:36.822Z,0
2019-04-01T02:33:38.379Z,0
2019-04-01T02:34:39.901Z,0
2019-04-01T02:35:41.530Z,0
2019-04-01T02:36:43.093Z,0
2019-04-01T02:37:44.481Z,0
2019-04-01T02:38:45.983Z,0
2019-04-01T02:39:47.508Z,0
2019-04-01T02:40:48.999Z,0
2019-04-01T02:41:50.874Z,0
2019-04-01T02:42:52.465Z,0
2019-04-01T02:43:54.224Z,0
2019-04-01T02:44:55.769Z,0
2019-04-01T02:45:57.375Z,0
2019-04-01T02:46:59.020Z,0
2019-04-01T02:48:00.607Z,0
2019-04-01T02:49:02.256Z,0
2019-04-01T02:50:03.886Z,0
2019-04-01T02:51:05.542Z,0
2019-04-01T02:52:07.143Z,0
2019-04-01T02:53:08.865Z,0
2019-04-01T02:54:10.421Z,0
2019-04-01T02:55:12.093Z,0
2019-04-01T02:56:13.854Z,0
2019-04-01T02:57:15.414Z,0
2019-04-01T02:58:16.985Z,0
2019-04-01T02:59:18.775Z,0
2019-04-01T03:00:20.320Z,0
2019-04-01T03:01:22.083Z,0
2019-04-01T03:02:23.697Z,0
2019-04-01T03:03:25.371Z,0
2019-04-01T03:04:26.970Z,0
2019-04-01T03:05:28.567Z,0
2019-04-01T03:06:30.198Z,0
2019-04-01T03:07:31.908Z,0
2019-04-01T03:08:33.553Z,0
2019-04-01T03:09:35.244Z,0
2019-04-01T03:10:36.842Z,0
2019-04-01T03:11:38.446Z,0
2019-04-01T03:12:40.165Z,0
2019-04-01T03:13:41.771Z,0
2019-04-01T03:14:43.452Z,0
2019-04-01T03:15:45.147Z,0
2019-04-01T03:16:46.624Z,0
2019-04-01T03:17:48.276Z,0
2019-04-01T03:18:49.961Z,0
2019-04-01T03:19:51.781Z,0
2019-04-01T03:20:53.396Z,0
2019-04-01T03:21:55.153Z,0
2019-04-01T03:22:56.800Z,0
2019-04-01T03:23:58.511Z,0
2019-04-01T03:25:00.129Z,0
2019-04-01T03:26:01.783Z,0
2019-04-01T03:27:03.541Z,0
2019-04-01T03:28:05.141Z,0
2019-04-01T03:29:06.770Z,0
2019-04-01T03:30:08.606Z,0
2019-04-01T03:31:10.247Z,0
2019-04-01T03:32:12.072Z,0
2019-04-01T03:33:13.659Z,0
2019-04-01T03:34:15.375Z,0
2019-04-01T03:35:16.992Z,0
2019-04-01T03:36:18.641Z,0
2019-04-01T03:37:20.489Z,0
2019-04-01T03:38:22.048Z,0
2019-04-01T03:39:23.680Z,0
2019-04-01T03:40:25.484Z,0
2019-04-01T03:41:27.090Z,0
2019-04-01T03:42:28.668Z,0
2019-04-01T03:43:30.411Z,0
2019-04-01T03:44:31.978Z,0
2019-04-01T03:45:33.647Z,0
2019-04-01T03:46:35.454Z,0
2019-04-01T03:47:37.067Z,0
2019-04-01T03:48:38.690Z,0
2019-04-01T03:49:40.754Z,0
2019-04-01T03:50:42.387Z,0
2019-04-01T03:51:44.036Z,0
2019-04-01T03:52:45.738Z,0
2019-04-01T03:53:47.369Z,0
2019-04-01T03:54:49.080Z,0
2019-04-01T03:55:50.661Z,0
2019-04-01T03:56:52.336Z,0
2019-04-01T03:57:53.924Z,0
2019-04-01T03:58:55.648Z,0
2019-04-01T03:59:57.200Z,0
2019-04-01T04:00:58.975Z,0
2019-04-01T04:02:00.458Z,0
2019-04-01T04:03:02.626Z,0
2019-04-01T04:04:04.334Z,0
2019-04-01T04:05:06.210Z,0
2019-04-01T04:06:07.814Z,0
2019-04-01T04:07:09.866Z,0
2019-04-01T04:08:11.556Z,0
2019-04-01T04:09:13.335Z,0
2019-04-01T04:10:15.006Z,0
2019-04-01T04:11:16.656Z,0
2019-04-01T04:12:18.556Z,0
2019-04-01T04:13:20.179Z,0
2019-04-01T04:14:21.604Z,0
2019-04-01T04:15:23.377Z,0
2019-04-01T04:16:24.967Z,0
2019-04-01T04:17:26.434Z,0
2019-04-01T04:18:28.179Z,0
2019-04-01T04:19:29.821Z,0
2019-04-01T04:20:31.371Z,0
2019-04-01T04:21:33.775Z,0
2019-04-01T04:22:35.357Z,0
2019-04-01T04:23:36.793Z,0
2019-04-01T04:24:38.867Z,0
2019-04-01T04:25:40.728Z,0
2019-04-01T04:26:42.186Z,0
2019-04-01T04:27:43.785Z,0
2019-04-01T04:28:45.206Z,0
2019-04-01T04:29:46.681Z,0
2019-04-01T04:30:48.305Z,0
2019-04-01T04:31:49.745Z,0
2019-04-01T04:32:51.178Z,0
2019-04-01T04:33:52.895Z,0
2019-04-01T04:34:57.173Z,0
2019-04-01T04:35:55.793Z,0
2019-04-01T04:36:57.387Z,0
2019-04-01T04:37:59.059Z,0
2019-04-01T04:39:00.489Z,0
2019-04-01T04:40:02.097Z,0
2019-04-01T04:41:03.495Z,0
2019-04-01T04:42:04.924Z,0
2019-04-01T04:43:06.422Z,0
2019-04-01T04:44:07.866Z,0
2019-04-01T04:45:09.687Z,0
2019-04-01T04:46:11.175Z,0
2019-04-01T04:47:12.963Z,0
2019-04-01T04:48:14.740Z,0
2019-04-01T04:49:16.345Z,0
2019-04-01T04:50:17.774Z,0
2019-04-01T04:51:19.336Z,0
2019-04-01T04:52:20.770Z,0
2019-04-01T04:53:22.465Z,0
2019-04-01T04:54:23.895Z,0
2019-04-01T04:55:25.928Z,0
2019-04-01T04:56:27.540Z,0
2019-04-01T04:57:29.293Z,0
2019-04-01T04:58:30.711Z,0
2019-04-01T04:59:32.608Z,0
2019-04-01T05:00:34.034Z,0
2019-04-01T05:01:35.462Z,5
2019-04-01T05:02:37.063Z,5
2019-04-01T05:03:38.544Z,5
2019-04-01T05:04:40.023Z,5
2019-04-01T05:05:41.609Z,5
2019-04-01T05:06:43.055Z,5
2019-04-01T05:07:44.521Z,5
2019-04-01T05:08:46.135Z,5
2019-04-01T05:09:47.613Z,10
2019-04-01T05:10:49.390Z,10
2019-04-01T05:11:51.077Z,10
2019-04-01T05:12:52.678Z,10
2019-04-01T05:13:54.103Z,10
2019-04-01T05:14:55.962Z,15
2019-04-01T05:15:57.428Z,15
2019-04-01T05:16:59.314Z,15
2019-04-01T05:18:00.906Z,15
2019-04-01T05:19:02.367Z,15
2019-04-01T05:20:03.791Z,20
2019-04-01T05:21:05.635Z,20
2019-04-01T05:22:07.082Z,20
2019-04-01T05:23:08.540Z,20
2019-04-01T05:24:10.177Z,25
2019-04-01T05:25:11.849Z,25
2019-04-01T05:26:13.716Z,25
2019-04-01T05:27:15.241Z,25
2019-04-01T05:28:16.718Z,30
2019-04-01T05:29:18.384Z,30
2019-04-01T05:30:19.982Z,30
2019-04-01T05:31:21.390Z,30
2019-04-01T05:32:23.090Z,35
2019-04-01T05:33:24.520Z,35
2019-04-01T05:34:25.960Z,35
2019-04-01T05:35:27.466Z,40
2019-04-01T05:36:28.892Z,40
2019-04-01T05:37:30.323Z,40
2019-04-01T05:38:31.984Z,40
2019-04-01T05:39:33.436Z,45
2019-04-01T05:40:35.062Z,45
2019-04-01T05:41:36.537Z,45
2019-04-01T05:42:38.293Z,45
2019-04-01T05:43:39.757Z,50
2019-04-01T05:44:41.450Z,50
2019-04-01T05:45:42.944Z,50
2019-04-01T05:46:44.515Z,55
2019-04-01T05:47:46.068Z,55
2019-04-01T05:48:47.506Z,55
2019-04-01T05:49:49.207Z,55
2019-04-01T05:50:50.616Z,60
2019-04-01T05:51:52.151Z,60
2019-04-01T05:52:53.582Z,60
2019-04-01T05:53:55.022Z,60
2019-04-01T05:54:56.655Z,65
2019-04-01T05:55:58.090Z,65
2019-04-01T05:56:59.521Z,65
2019-04-01T05:58:01.164Z,70
2019-04-01T05:59:02.609Z,70
2019-04-01T06:00:04.266Z,70
2019-04-01T06:01:05.881Z,70
2019-04-01T06:02:07.481Z,70
2019-04-01T06:03:09.164Z,70
2019-04-01T06:04:10.583Z,75
2019-04-01T06:05:12.000Z,75
2019-04-01T06:06:13.650Z,75
2019-04-01T06:07:15.097Z,80
2019-04-01T06:08:16.522Z,85
2019-04-01T06:09:18.248Z,85
2019-04-01T06:10:19.868Z,90
2019-04-01T06:11:21.234Z,100
2019-04-01T06:12:24.120Z,110
2019-04-01T06:13:24.611Z,110
2019-04-01T06:14:26.013Z,120
2019-04-01T06:15:27.515Z,130
2019-04-01T06:16:29.115Z,135
2019-04-01T06:17:30.543Z,135
2019-04-01T06:18:32.024Z,130
2019-04-01T06:19:33.680Z,125
2019-04-01T06:20:35.130Z,125
2019-04-01T06:21:36.792Z,130
2019-04-01T06:22:38.711Z,130
2019-04-01T06:23:40.118Z,140
2019-04-01T06:24:41.724Z,150
2019-04-01T06:25:43.430Z,165
2019-04-01T06:26:44.990Z,185
2019-04-01T06:27:46.647Z,220
2019-04-01T06:28:48.111Z,265
2019-04-01T06:29:50.006Z,295
2019-04-01T06:30:51.433Z,325
2019-04-01T06:31:52.875Z,335
2019-04-01T06:32:54.746Z,360
2019-04-01T06:33:56.263Z,410
2019-04-01T06:34:57.793Z,440
2019-04-01T06:35:59.521Z,475
2019-04-01T06:37:01.299Z,490
2019-04-01T06:38:02.892Z,495
2019-04-01T06:39:04.475Z,540
2019-04-01T06:40:06.550Z,560
2019-04-01T06:41:08.220Z,585
2019-04-01T06:42:09.921Z,605
2019-04-01T06:43:11.632Z,610
2019-04-01T06:44:13.281Z,620
2019-04-01T06:45:15.002Z,630
2019-04-01T06:46:16.589Z,640
2019-04-01T06:47:18.319Z,645
2019-04-01T06:48:20.034Z,650
2019-04-01T06:49:21.934Z,660
2019-04-01T06:50:23.677Z,665
2019-04-01T06:51:25.533Z,665
2019-04-01T06:52:27.195Z,670
2019-04-01T06:53:28.871Z,685
2019-04-01T06:54:31.245Z,710
2019-04-01T06:55:33.741Z,700
2019-04-01T06:56:35.102Z,700
2019-04-01T06:57:36.804Z,705
2019-04-01T06:58:38.527Z,705
2019-04-01T06:59:39.999Z,720
2019-04-01T07:00:41.618Z,735
2019-04-01T07:01:43.399Z,745
2019-04-01T07:02:44.869Z,760
2019-04-01T07:03:46.334Z,775
2019-04-01T07:04:47.923Z,785
2019-04-01T07:05:49.427Z,795
2019-04-01T07:06:50.869Z,815
2019-04-01T07:07:52.447Z,820
2019-04-01T07:08:53.876Z,815
2019-04-01T07:09:55.597Z,835
2019-04-01T07:10:57.061Z,845
2019-04-01T07:11:58.627Z,860
2019-04-01T07:13:00.086Z,860
2019-04-01T07:14:01.737Z,885
2019-04-01T07:15:03.201Z,905
2019-04-01T07:16:15.254Z,905
2019-04-01T07:17:06.229Z,920
2019-04-01T07:18:07.919Z,925
2019-04-01T07:19:09.378Z,930
2019-04-01T07:20:10.817Z,940
2019-04-01T07:21:12.422Z,955
2019-04-01T07:22:14.261Z,970
2019-04-01T07:23:15.740Z,980
2019-04-01T07:24:17.381Z,985
2019-04-01T07:25:18.847Z,990
2019-04-01T07:26:20.428Z,995
2019-04-01T07:27:21.898Z,1015
2019-04-01T07:28:23.737Z,1015
2019-04-01T07:29:25.187Z,1000
2019-04-01T07:30:26.672Z,890
2019-04-01T07:31:28.239Z,745
2019-04-01T07:32:29.689Z,785
2019-04-01T07:33:31.154Z,725
2019-04-01T07:34:32.820Z,570
2019-04-01T07:35:34.276Z,570
2019-04-01T07:36:35.740Z,635
2019-04-01T07:37:37.310Z,585
2019-04-01T07:38:38.796Z,500
2019-04-01T07:39:40.255Z,450
2019-04-01T07:40:41.838Z,360
2019-04-01T07:41:43.280Z,340
2019-04-01T07:42:44.719Z,365
2019-04-01T07:43:46.751Z,585
2019-04-01T07:44:48.185Z,830
2019-04-01T07:45:49.876Z,845
2019-04-01T07:46:51.326Z,830
2019-04-01T07:47:52.915Z,1040
2019-04-01T07:48:54.354Z,1125
2019-04-01T07:49:56.018Z,920
2019-04-01T07:50:57.514Z,815
2019-04-01T07:51:59.120Z,1005
2019-04-01T07:53:00.566Z,1250
2019-04-01T07:54:02.172Z,1185
2019-04-01T07:55:04.070Z,1135
2019-04-01T07:56:05.652Z,905
2019-04-01T07:57:07.127Z,810
2019-04-01T07:58:08.750Z,970
2019-04-01T07:59:10.219Z,920
2019-04-01T08:00:11.673Z,930
2019-04-01T08:01:13.245Z,810
2019-04-01T08:02:14.659Z,735
2019-04-01T08:03:16.062Z,660
2019-04-01T08:04:17.562Z,605
2019-04-01T08:05:18.981Z,1025
2019-04-01T08:06:20.475Z,965
2019-04-01T08:07:21.909Z,815
2019-04-01T08:08:23.332Z,970
2019-04-01T08:09:24.828Z,1025
2019-04-01T08:10:26.269Z,1210
2019-04-01T08:11:27.899Z,975
2019-04-01T08:12:29.377Z,895
2019-04-01T08:13:30.742Z,795
2019-04-01T08:14:32.469Z,805
2019-04-01T08:15:33.919Z,760
2019-04-01T08:16:35.540Z,870
2019-04-01T08:17:37.009Z,895
2019-04-01T08:18:38.697Z,600
2019-04-01T08:19:40.122Z,650
2019-04-01T08:20:41.725Z,775
2019-04-01T08:21:43.163Z,705
2019-04-01T08:22:44.769Z,600
2019-04-01T08:23:46.339Z,610
2019-04-01T08:24:47.814Z,610
2019-04-01T08:25:49.269Z,795
2019-04-01T08:26:50.936Z,610
2019-04-01T08:27:52.367Z,635
2019-04-01T08:28:54.203Z,1010
2019-04-01T08:29:55.625Z,865
2019-04-01T08:30:57.075Z,550
2019-04-01T08:31:58.560Z,650
2019-04-01T08:33:00.031Z,690
2019-04-01T08:34:01.486Z,965
2019-04-01T08:35:03.073Z,905
2019-04-01T08:36:04.533Z,670
2019-04-01T08:37:06.077Z,885
2019-04-01T08:38:07.621Z,1050
2019-04-01T08:39:09.208Z,1020
2019-04-01T08:40:10.687Z,1085
2019-04-01T08:41:12.132Z,1095
2019-04-01T08:42:13.564Z,1340
2019-04-01T08:43:15.211Z,1525
2019-04-01T08:44:16.629Z,1390
2019-04-01T08:45:18.106Z,1305
2019-04-01T08:46:19.729Z,1400
2019-04-01T08:47:21.190Z,1090
2019-04-01T08:48:22.649Z,1405
2019-04-01T08:49:24.245Z,1660
2019-04-01T08:50:26.100Z,1810
2019-04-01T08:51:27.557Z,1730
2019-04-01T08:52:29.470Z,1875
2019-04-01T08:53:30.809Z,1940
2019-04-01T08:54:32.258Z,1975
2019-04-01T08:55:33.721Z,2040
2019-04-01T08:56:38.156Z,2195
2019-04-01T08:57:36.809Z,2255
2019-04-01T08:58:38.317Z,2295
2019-04-01T08:59:40.017Z,2245
2019-04-01T09:00:41.450Z,2145
2019-04-01T09:01:43.083Z,2115
2019-04-01T09:02:44.519Z,2175
2019-04-01T09:03:46.196Z,2275
2019-04-01T09:04:47.671Z,2300
2019-04-01T09:05:49.315Z,2330
2019-04-01T09:06:50.913Z,2355
2019-04-01T09:07:52.425Z,2415
2019-04-01T09:08:53.859Z,2400
2019-04-01T09:09:55.846Z,2480
2019-04-01T09:10:57.251Z,2445
2019-04-01T09:11:58.715Z,2450
2019-04-01T09:13:00.363Z,2460
2019-04-01T09:14:01.861Z,2435
2019-04-01T09:15:03.310Z,2375
2019-04-01T09:16:04.904Z,2410
2019-04-01T09:17:06.353Z,2455
2019-04-01T09:18:07.775Z,2435
2019-04-01T09:19:09.372Z,2470
2019-04-01T09:20:10.808Z,2520
2019-04-01T09:21:12.221Z,2505
2019-04-01T09:22:13.701Z,2520
2019-04-01T09:23:15.203Z,2020
2019-04-01T09:24:16.841Z,1500
2019-04-01T09:25:18.316Z,1365
2019-04-01T09:26:19.934Z,2005
2019-04-01T09:27:21.417Z,2555
2019-04-01T09:28:23.026Z,2535
2019-04-01T09:29:24.470Z,2595
2019-04-01T09:30:25.892Z,2600
2019-04-01T09:31:27.495Z,2500
2019-04-01T09:32:29.066Z,1625
2019-04-01T09:33:30.499Z,1080
2019-04-01T09:34:32.223Z,1580
2019-04-01T09:35:33.649Z,2205
2019-04-01T09:36:35.067Z,2400
2019-04-01T09:37:36.790Z,2800
2019-04-01T09:38:38.187Z,2835
2019-04-01T09:39:39.777Z,2905
2019-04-01T09:40:41.525Z,2935
2019-04-01T09:41:42.984Z,2980
2019-04-01T09:42:44.438Z,2965
2019-04-01T09:43:46.056Z,2970
2019-04-01T09:44:47.491Z,3000
2019-04-01T09:45:48.938Z,2945
2019-04-01T09:46:50.590Z,2285
2019-04-01T09:47:52.022Z,2435
2019-04-01T09:48:53.664Z,2490
2019-04-01T09:49:55.150Z,2085
2019-04-01T09:50:56.767Z,1580
2019-04-01T09:51:58.234Z,1575
2019-04-01T09:52:59.846Z,2195
2019-04-01T09:54:01.294Z,2825
2019-04-01T09:55:05.882Z,2625
2019-04-01T09:56:04.248Z,2530
2019-04-01T09:57:16.716Z,3095
2019-04-01T09:58:07.422Z,3065
2019-04-01T09:59:09.057Z,2925
2019-04-01T10:00:10.483Z,2000
2019-04-01T10:01:11.939Z,2100
2019-04-01T10:02:13.829Z,2720
2019-04-01T10:03:15.273Z,3160
2019-04-01T10:04:16.690Z,2495
2019-04-01T10:05:18.298Z,2145
2019-04-01T10:06:19.729Z,3130
2019-04-01T10:07:21.432Z,3315
2019-04-01T10:08:22.836Z,3385
2019-04-01T10:09:24.515Z,3360
2019-04-01T10:10:25.969Z,2770
2019-04-01T10:11:27.459Z,2775
2019-04-01T10:12:29.031Z,3075
2019-04-01T10:13:30.505Z,3350
2019-04-01T10:14:31.956Z,3190
2019-04-01T10:15:33.569Z,1780
2019-04-01T10:16:35.028Z,2855
2019-04-01T10:17:36.656Z,3200
2019-04-01T10:18:38.129Z,3830
2019-04-01T10:19:39.815Z,2890
2019-04-01T10:20:41.293Z,1975
2019-04-01T10:21:45.259Z,1585
2019-04-01T10:22:44.485Z,1080
2019-04-01T10:23:46.170Z,1150
2019-04-01T10:24:47.620Z,1485
2019-04-01T10:25:51.375Z,1610
2019-04-01T10:26:50.625Z,1875
2019-04-01T10:27:52.072Z,1745
2019-04-01T10:28:53.543Z,2410
2019-04-01T10:29:55.199Z,2150
2019-04-01T10:30:56.665Z,2210
2019-04-01T10:31:58.109Z,2120
2019-04-01T10:33:02.108Z,2010
2019-04-01T10:34:01.160Z,1925
2019-04-01T10:35:02.807Z,1805
2019-04-01T10:36:04.238Z,1795
2019-04-01T10:37:05.704Z,1920
2019-04-01T10:38:07.285Z,2005
2019-04-01T10:39:08.780Z,1955
2019-04-01T10:40:10.238Z,1975
2019-04-01T10:41:11.859Z,1840
2019-04-01T10:42:13.328Z,1710
2019-04-01T10:43:14.940Z,1955
2019-04-01T10:44:16.383Z,1955
2019-04-01T10:45:18.024Z,1690
2019-04-01T10:46:19.465Z,1805
2019-04-01T10:47:20.914Z,1900
2019-04-01T10:48:22.577Z,1985
2019-04-01T10:49:24.011Z,1865
2019-04-01T10:50:25.474Z,1480
2019-04-01T10:51:27.070Z,1160
2019-04-01T10:52:28.506Z,1865
2019-04-01T10:53:30.179Z,2450
2019-04-01T10:54:31.651Z,2530
2019-04-01T10:55:33.319Z,2560
2019-04-01T10:56:35.880Z,2525
2019-04-01T10:57:36.177Z,2635
2019-04-01T10:58:37.897Z,2625
2019-04-01T10:59:39.412Z,2475
2019-04-01T11:00:40.892Z,2275
2019-04-01T11:01:42.505Z,2210
2019-04-01T11:02:44.057Z,2560
2019-04-01T11:03:45.526Z,2385
2019-04-01T11:04:47.219Z,2515
2019-04-01T11:05:49.180Z,2700
2019-04-01T11:06:50.507Z,1235
2019-04-01T11:07:52.224Z,1405
2019-04-01T11:08:53.610Z,1595
2019-04-01T11:09:55.040Z,1750
2019-04-01T11:10:56.643Z,1580
2019-04-01T11:11:58.085Z,2160
2019-04-01T11:12:59.731Z,1685
2019-04-01T11:14:01.159Z,820
2019-04-01T11:15:02.808Z,450
2019-04-01T11:16:04.236Z,380
2019-04-01T11:17:05.802Z,385
2019-04-01T11:18:07.322Z,390
2019-04-01T11:19:09.991Z,400
2019-04-01T11:20:10.219Z,415
2019-04-01T11:21:11.956Z,405
2019-04-01T11:22:13.429Z,400
2019-04-01T11:23:15.183Z,400
2019-04-01T11:24:16.873Z,400
2019-04-01T11:25:18.498Z,405
2019-04-01T11:26:19.955Z,405
2019-04-01T11:27:21.428Z,405
2019-04-01T11:28:22.987Z,400
2019-04-01T11:29:25.761Z,390
2019-04-01T11:30:25.935Z,380
2019-04-01T11:31:27.527Z,375
2019-04-01T11:32:28.979Z,365
2019-04-01T11:33:30.389Z,360
2019-04-01T11:34:32.036Z,355
2019-04-01T11:35:33.520Z,345
2019-04-01T11:36:34.920Z,340
2019-04-01T11:37:36.602Z,335
2019-04-01T11:38:38.050Z,330
2019-04-01T11:39:39.530Z,325
2019-04-01T11:40:41.107Z,320
2019-04-01T11:41:42.514Z,310
2019-04-01T11:42:43.856Z,305
2019-04-01T11:43:45.481Z,300
2019-04-01T11:44:46.920Z,295
2019-04-01T11:45:48.363Z,290
2019-04-01T11:46:49.970Z,290
2019-04-01T11:47:51.367Z,285
2019-04-01T11:48:53.052Z,280
2019-04-01T11:49:54.506Z,275
2019-04-01T11:50:56.114Z,270
2019-04-01T11:51:57.561Z,270
2019-04-01T11:52:58.981Z,265
2019-04-01T11:54:00.612Z,265
2019-04-01T11:55:02.032Z,270
2019-04-01T11:56:03.488Z,260
2019-04-01T11:57:05.140Z,255
2019-04-01T11:58:06.546Z,255
2019-04-01T11:59:08.458Z,250
2019-04-01T12:00:12.521Z,250
2019-04-01T12:01:10.821Z,245
2019-04-01T12:02:12.230Z,240
2019-04-01T12:03:13.776Z,240
2019-04-01T12:04:15.184Z,240
2019-04-01T12:05:16.593Z,235
2019-04-01T12:06:18.302Z,235
2019-04-01T12:07:19.706Z,235
2019-04-01T12:08:21.109Z,230
2019-04-01T12:09:22.645Z,230
2019-04-01T12:10:24.051Z,230
2019-04-01T12:11:25.458Z,230
2019-04-01T12:12:27.154Z,225
2019-04-01T12:13:29.023Z,225
2019-04-01T12:14:29.936Z,220
2019-04-01T12:15:31.476Z,220
2019-04-01T12:16:32.878Z,215
2019-04-01T12:17:34.288Z,215
2019-04-01T12:18:35.999Z,215
2019-04-01T12:19:37.407Z,215
2019-04-01T12:20:39.328Z,215
2019-04-01T12:21:41.580Z,215
2019-04-01T12:22:45.483Z,220
2019-04-01T12:23:43.772Z,220
2019-04-01T12:24:45.466Z,220
2019-04-01T12:25:46.872Z,225
2019-04-01T12:26:48.545Z,225
2019-04-01T12:27:49.952Z,230
2019-04-01T12:28:51.630Z,235
2019-04-01T12:29:53.038Z,240
2019-04-01T12:30:54.718Z,240
2019-04-01T12:31:59.414Z,250
2019-04-01T12:32:57.492Z,245
2019-04-01T12:33:59.037Z,235
2019-04-01T12:35:00.529Z,225
2019-04-01T12:36:01.810Z,215
2019-04-01T12:37:03.387Z,210
2019-04-01T12:38:04.795Z,210
2019-04-01T12:39:06.195Z,210
2019-04-01T12:40:07.886Z,210
2019-04-01T12:41:09.292Z,205
2019-04-01T12:42:10.793Z,210
2019-04-01T12:43:12.207Z,205
2019-04-01T12:44:13.609Z,205
2019-04-01T12:45:15.016Z,205
2019-04-01T12:46:16.530Z,200
2019-04-01T12:47:17.932Z,195
2019-04-01T12:48:19.338Z,190
2019-04-01T12:49:20.851Z,185
2019-04-01T12:50:22.253Z,190
2019-04-01T12:51:23.935Z,185
2019-04-01T12:52:25.340Z,185
2019-04-01T12:53:26.747Z,185
2019-04-01T12:54:28.258Z,185
2019-04-01T12:55:29.663Z,185
2019-04-01T12:56:31.040Z,185
2019-04-01T12:57:32.578Z,185
2019-04-01T12:58:33.981Z,180
2019-04-01T12:59:35.386Z,185
2019-04-01T13:00:36.901Z,185
2019-04-01T13:01:38.306Z,185
2019-04-01T13:02:39.770Z,185
2019-04-01T13:03:41.426Z,180
2019-04-01T13:04:42.828Z,180
2019-04-01T13:05:44.233Z,180
2019-04-01T13:06:45.748Z,180
2019-04-01T13:07:47.151Z,180
2019-04-01T13:08:48.556Z,185
2019-04-01T13:09:50.834Z,185
2019-04-01T13:10:51.437Z,185
2019-04-01T13:11:52.951Z,185
2019-04-01T13:12:54.541Z,185
2019-04-01T13:13:55.842Z,185
2019-04-01T13:14:57.236Z,180
2019-04-01T13:15:58.918Z,175
2019-04-01T13:17:00.321Z,170
2019-04-01T13:18:03.076Z,165
2019-04-01T13:19:04.430Z,160
2019-04-01T13:20:06.113Z,165
2019-04-01T13:21:07.515Z,170
2019-04-01T13:22:09.483Z,170
2019-04-01T13:23:10.559Z,165
2019-04-01T13:24:12.079Z,160
2019-04-01T13:25:13.481Z,160
2019-04-01T13:26:15.172Z,160
2019-04-01T13:27:16.564Z,155
2019-04-01T13:28:17.970Z,160
2019-04-01T13:29:19.491Z,155
2019-04-01T13:30:23.941Z,160
2019-04-01T13:31:22.307Z,160
2019-04-01T13:32:23.807Z,160
2019-04-01T13:33:25.211Z,155
2019-04-01T13:34:26.615Z,155
2019-04-01T13:35:28.135Z,155
2019-04-01T13:36:29.533Z,155
2019-04-01T13:37:30.947Z,150
2019-04-01T13:38:32.658Z,150
2019-04-01T13:39:34.055Z,155
2019-04-01T13:40:35.460Z,145
2019-04-01T13:41:42.612Z,145
2019-04-01T13:42:38.342Z,145
2019-04-01T13:43:39.786Z,145
2019-04-01T13:44:41.302Z,145
2019-04-01T13:45:42.709Z,140
2019-04-01T13:46:44.103Z,140
2019-04-01T13:47:45.627Z,135
2019-04-01T13:48:57.684Z,130
2019-04-01T13:49:48.410Z,130
2019-04-01T13:50:49.945Z,130
2019-04-01T13:51:51.347Z,130
2019-04-01T13:52:52.752Z,125
2019-04-01T13:54:07.687Z,125
2019-04-01T13:54:55.627Z,125
2019-04-01T13:55:57.030Z,125
2019-04-01T13:56:58.583Z,125
2019-04-01T13:57:59.984Z,125
2019-04-01T13:59:01.389Z,120
2019-04-01T14:00:02.907Z,120
2019-04-01T14:01:04.308Z,120
2019-04-01T14:02:05.999Z,120
2019-04-01T14:03:10.940Z,120
2019-04-01T14:04:08.759Z,120
2019-04-01T14:05:10.315Z,120
2019-04-01T14:06:11.716Z,115
2019-04-01T14:07:13.121Z,115
2019-04-01T14:08:14.643Z,115
2019-04-01T14:09:16.039Z,115
2019-04-01T14:10:17.718Z,115
2019-04-01T14:11:19.125Z,115
2019-04-01T14:12:20.805Z,115
2019-04-01T14:13:22.208Z,115
2019-04-01T14:14:23.617Z,115
2019-04-01T14:15:25.126Z,110
2019-04-01T14:16:26.527Z,110
2019-04-01T14:17:27.932Z,110
2019-04-01T14:18:29.447Z,110
2019-04-01T14:19:30.848Z,110
2019-04-01T14:20:32.329Z,110
2019-04-01T14:21:33.737Z,110
2019-04-01T14:22:35.413Z,110
2019-04-01T14:23:36.816Z,110
2019-04-01T14:24:38.498Z,110
2019-04-01T14:25:39.925Z,105